This is the latest recevied weather packets stored in our database for station/object ON5MM-5. If no packets are shown the sender has not sent any weather packets the latest 10 day(s).
| Time | Temp. | Humidity | Pressure | Rain* | Wind** | Luminosity | Snow |
|---|---|---|---|---|---|---|---|
| 1777344902 | 6.11° C | 68% | 1021 hPa | 0 mm | 0 m/s | - | - |
| 1777343702 | 6.11° C | 68% | 1021.1 hPa | 0 mm | 0 m/s | - | - |
| 1777343402 | 6.11° C | 68% | 1021.1 hPa | 0 mm | 0 m/s | - | - |
| 1777342502 | 6.11° C | 69% | 1021.1 hPa | 0 mm | 0 m/s | - | - |
| 1777342203 | 6.11° C | 70% | 1021.2 hPa | 0 mm | 0 m/s | - | - |
| 1777341302 | 5.56° C | 71% | 1021.2 hPa | 0 mm | 0 m/s | - | - |
| 1777340702 | 5.56° C | 70% | 1021.2 hPa | 0 mm | 0 m/s | - | - |
| 1777340102 | 6.11° C | 68% | 1021.2 hPa | 0 mm | 0 m/s | - | - |
| 1777339803 | 6.67° C | 66% | 1021.3 hPa | 0 mm | 0 m/s | - | - |
| 1777339502 | 6.67° C | 66% | 1021.3 hPa | 0 mm | 0 m/s | - | - |
| 1777339202 | 6.67° C | 66% | 1021.4 hPa | 0 mm | 0 m/s | - | - |
| 1777338902 | 6.67° C | 65% | 1021.3 hPa | 0 mm | 0 m/s | - | - |
| 1777338302 | 6.67° C | 65% | 1021.2 hPa | 0 mm | 0 m/s | - | - |
| 1777336503 | 6.67° C | 65% | 1021.3 hPa | 0 mm | 0 m/s | - | - |
| 1777335902 | 6.11° C | 66% | 1021.3 hPa | 0 mm | 0 m/s | - | - |
| 1777335302 | 6.11° C | 67% | 1021.2 hPa | 0 mm | 0 m/s | - | - |
| 1777334103 | 6.11° C | 65% | 1021.3 hPa | 0 mm | 0 m/s | - | - |
| 1777333502 | 7.78° C | 60% | 1021.4 hPa | 0 mm | 0 m/s | - | - |
| 1777329303 | 7.22° C | 60% | 1021.2 hPa | 0 mm | 0 m/s | - | - |
| 1777328702 | 7.22° C | 62% | 1021.3 hPa | 0 mm | 0 m/s | - | - |
| 1777311002 | 16.11° C | 34% | 1021.5 hPa | 0 mm | 0.45 m/s, ° | - | - |
| 1777310702 | 16.11° C | 34% | 1021.6 hPa | 0 mm | 0.45 m/s, ° | - | - |
| 1777305903 | 18.89° C | 28% | 1021.8 hPa | 0 mm | 2.24 m/s, ° | - | - |
| 1777304403 | 18.89° C | 33% | 1022 hPa | 0 mm | 1.34 m/s, ° | - | - |
| 1777304102 | 18.89° C | 32% | 1022.1 hPa | 0 mm | 1.34 m/s, ° | - | - |
* Rain latest hour (hover to see other rain measurements)
** Current wind speed in m/s (hover to see current wind gust speed)